createdAt,value
2018-10-16T00:00:09.476Z,1013.33
2018-10-16T00:01:09.448Z,1013.33
2018-10-16T00:02:09.422Z,1013.33
2018-10-16T00:03:09.433Z,1013.33
2018-10-16T00:04:09.375Z,1013.33
2018-10-16T00:05:09.347Z,1013.33
2018-10-16T00:06:09.320Z,1013.35
2018-10-16T00:07:09.295Z,1013.37
2018-10-16T00:08:09.273Z,1013.34
2018-10-16T00:09:09.245Z,1013.34
2018-10-16T00:10:09.269Z,1013.34
2018-10-16T00:11:09.189Z,1013.36
2018-10-16T00:12:09.164Z,1013.42
2018-10-16T00:13:09.135Z,1013.39
2018-10-16T00:14:09.111Z,1013.38
2018-10-16T00:15:09.084Z,1013.43
2018-10-16T00:16:09.057Z,1013.41
2018-10-16T00:17:09.037Z,1013.44
2018-10-16T00:18:09.007Z,1013.45
2018-10-16T00:19:08.986Z,1013.43
2018-10-16T00:20:08.956Z,1013.46
2018-10-16T00:21:08.926Z,1013.44
2018-10-16T00:22:08.913Z,1013.42
2018-10-16T00:23:08.874Z,1013.45
2018-10-16T00:24:08.848Z,1013.46
2018-10-16T00:25:08.823Z,1013.44
2018-10-16T00:26:08.797Z,1013.47
2018-10-16T00:27:08.770Z,1013.41
2018-10-16T00:28:08.748Z,1013.45
2018-10-16T00:29:08.720Z,1013.45
2018-10-16T00:32:15.343Z,1013.49
2018-10-16T00:33:15.117Z,1013.48
2018-10-16T00:34:15.095Z,1013.48
2018-10-16T00:35:15.065Z,1013.50
2018-10-16T00:36:15.040Z,1013.51
2018-10-16T00:37:15.021Z,1013.47
2018-10-16T00:38:14.986Z,1013.45
2018-10-16T00:39:14.959Z,1013.47
2018-10-16T00:40:14.933Z,1013.48
2018-10-16T00:41:14.905Z,1013.46
2018-10-16T00:42:14.897Z,1013.45
2018-10-16T00:43:14.860Z,1013.45
2018-10-16T00:44:14.829Z,1013.48
2018-10-16T00:45:14.803Z,1013.47
2018-10-16T00:46:14.803Z,1013.44
2018-10-16T00:47:14.750Z,1013.44
2018-10-16T00:48:14.724Z,1013.48
2018-10-16T00:49:14.699Z,1013.50
2018-10-16T00:50:14.671Z,1013.52
2018-10-16T00:51:14.654Z,1013.51
2018-10-16T00:52:14.617Z,1013.50
2018-10-16T00:53:14.592Z,1013.51
2018-10-16T00:54:14.565Z,1013.50
2018-10-16T00:55:14.551Z,1013.50
2018-10-16T00:56:14.515Z,1013.51
2018-10-16T00:57:14.488Z,1013.53
2018-10-16T00:58:14.463Z,1013.53
2018-10-16T00:59:14.434Z,1013.54
2018-10-16T01:00:14.410Z,1013.56
2018-10-16T01:01:14.586Z,1013.56
2018-10-16T01:02:14.354Z,1013.55
2018-10-16T01:03:14.339Z,1013.58
2018-10-16T01:04:14.302Z,1013.58
2018-10-16T01:05:14.277Z,1013.57
2018-10-16T01:06:14.249Z,1013.60
2018-10-16T01:07:14.232Z,1013.57
2018-10-16T01:08:57.360Z,1013.56
2018-10-16T01:09:56.320Z,1013.57
2018-10-16T01:10:56.293Z,1013.58
2018-10-16T01:11:56.269Z,1013.62
2018-10-16T01:12:56.244Z,1013.57
2018-10-16T01:13:56.216Z,1013.58
2018-10-16T01:14:56.193Z,1013.56
2018-10-16T01:15:56.161Z,1013.58
2018-10-16T01:16:56.338Z,1013.60
2018-10-16T01:17:56.119Z,1013.58
2018-10-16T01:18:56.084Z,1013.57
2018-10-16T01:19:56.060Z,1013.60
2018-10-16T01:20:56.032Z,1013.57
2018-10-16T01:21:56.004Z,1013.60
2018-10-16T01:22:55.985Z,1013.59
2018-10-16T01:23:55.952Z,1013.62
2018-10-16T01:24:55.926Z,1013.57
2018-10-16T01:25:55.899Z,1013.59
2018-10-16T01:26:57.073Z,1013.62
2018-10-16T01:27:55.847Z,1013.55
2018-10-16T01:28:55.819Z,1013.62
2018-10-16T01:29:55.792Z,1013.60
2018-10-16T01:30:55.768Z,1013.62
2018-10-16T01:31:55.748Z,1013.59
2018-10-16T01:32:55.775Z,1013.62
2018-10-16T01:33:55.688Z,1013.63
2018-10-16T01:34:55.661Z,1013.62
2018-10-16T01:35:55.634Z,1013.61
2018-10-16T01:36:55.607Z,1013.58
2018-10-16T01:37:55.588Z,1013.62
2018-10-16T01:38:55.558Z,1013.61
2018-10-16T01:39:55.528Z,1013.58
2018-10-16T01:40:55.501Z,1013.60
2018-10-16T01:41:55.474Z,1013.59
2018-10-16T01:42:55.451Z,1013.64
2018-10-16T01:43:55.424Z,1013.61
2018-10-16T01:44:55.408Z,1013.66
2018-10-16T01:45:55.373Z,1013.67
2018-10-16T01:46:55.351Z,1013.59
2018-10-16T01:47:55.332Z,1013.64
2018-10-16T01:48:55.291Z,1013.61
2018-10-16T01:49:55.264Z,1013.65
2018-10-16T01:50:55.238Z,1013.67
2018-10-16T01:51:55.217Z,1013.66
2018-10-16T01:52:55.186Z,1013.66
2018-10-16T01:53:55.160Z,1013.65
2018-10-16T01:54:55.134Z,1013.62
2018-10-16T01:55:55.107Z,1013.66
2018-10-16T01:56:55.080Z,1013.63
2018-10-16T01:57:55.054Z,1013.65
2018-10-16T01:58:55.027Z,1013.66
2018-10-16T01:59:55.000Z,1013.66
2018-10-16T02:00:54.973Z,1013.68
2018-10-16T02:01:54.946Z,1013.63
2018-10-16T02:02:54.924Z,1013.65
2018-10-16T02:03:54.896Z,1013.66
2018-10-16T02:04:54.873Z,1013.65
2018-10-16T02:05:54.842Z,1013.67
2018-10-16T02:06:54.818Z,1013.69
2018-10-16T02:07:54.788Z,1013.67
2018-10-16T02:08:54.763Z,1013.65
2018-10-16T02:09:54.734Z,1013.70
2018-10-16T02:10:54.708Z,1013.69
2018-10-16T02:11:54.714Z,1013.68
2018-10-16T02:12:54.663Z,1013.69
2018-10-16T02:13:54.632Z,1013.69
2018-10-16T02:14:54.714Z,1013.71
2018-10-16T02:15:54.580Z,1013.72
2018-10-16T02:16:54.550Z,1013.74
2018-10-16T02:17:54.523Z,1013.77
2018-10-16T02:18:54.498Z,1013.75
2018-10-16T02:19:54.472Z,1013.77
2018-10-16T02:20:54.450Z,1013.76
2018-10-16T02:21:54.423Z,1013.79
2018-10-16T02:22:54.393Z,1013.79
2018-10-16T02:23:54.364Z,1013.80
2018-10-16T02:24:54.338Z,1013.83
2018-10-16T02:25:54.311Z,1013.83
2018-10-16T02:26:54.285Z,1013.83
2018-10-16T02:27:54.260Z,1013.82
2018-10-16T02:28:54.231Z,1013.84
2018-10-16T02:29:54.406Z,1013.80
2018-10-16T02:30:54.178Z,1013.83
2018-10-16T02:31:54.164Z,1013.82
2018-10-16T02:32:54.129Z,1013.81
2018-10-16T02:33:54.100Z,1013.81
2018-10-16T02:34:54.074Z,1013.83
2018-10-16T02:35:54.045Z,1013.81
2018-10-16T02:36:54.022Z,1013.81
2018-10-16T02:37:53.993Z,1013.79
2018-10-16T02:38:53.968Z,1013.82
2018-10-16T02:39:53.942Z,1013.81
2018-10-16T02:40:53.915Z,1013.82
2018-10-16T02:41:53.887Z,1013.84
2018-10-16T02:42:53.863Z,1013.86
2018-10-16T02:43:53.838Z,1013.82
2018-10-16T02:44:53.808Z,1013.83
2018-10-16T02:45:53.782Z,1013.80
2018-10-16T02:46:53.753Z,1013.81
2018-10-16T02:47:53.731Z,1013.79
2018-10-16T02:48:53.701Z,1013.78
2018-10-16T02:49:53.671Z,1013.78
2018-10-16T02:50:53.645Z,1013.79
2018-10-16T02:51:53.621Z,1013.81
2018-10-16T02:52:53.596Z,1013.80
2018-10-16T02:53:53.613Z,1013.79
2018-10-16T02:54:53.541Z,1013.82
2018-10-16T02:55:53.517Z,1013.79
2018-10-16T02:56:53.485Z,1013.77
2018-10-16T02:57:53.459Z,1013.77
2018-10-16T02:58:53.436Z,1013.79
2018-10-16T02:59:53.406Z,1013.78
2018-10-16T03:00:53.378Z,1013.76
2018-10-16T03:01:53.351Z,1013.78
2018-10-16T03:02:53.328Z,1013.77
2018-10-16T03:03:53.301Z,1013.81
2018-10-16T03:04:53.274Z,1013.78
2018-10-16T03:05:53.248Z,1013.81
2018-10-16T03:06:53.220Z,1013.81
2018-10-16T03:07:53.193Z,1013.85
2018-10-16T03:08:53.166Z,1013.86
2018-10-16T03:09:53.141Z,1013.82
2018-10-16T03:10:53.113Z,1013.86
2018-10-16T03:11:53.095Z,1013.84
2018-10-16T03:12:53.061Z,1013.85
2018-10-16T03:13:53.033Z,1013.83
2018-10-16T03:14:53.007Z,1013.84
2018-10-16T03:15:52.980Z,1013.86
2018-10-16T03:16:52.961Z,1013.86
2018-10-16T03:17:52.927Z,1013.89
2018-10-16T03:18:52.901Z,1013.92
2018-10-16T03:19:52.871Z,1013.93
2018-10-16T03:20:52.846Z,1013.92
2018-10-16T03:21:52.817Z,1013.93
2018-10-16T03:22:52.792Z,1013.91
2018-10-16T03:23:52.766Z,1013.92
2018-10-16T03:24:52.742Z,1013.92
2018-10-16T03:25:52.715Z,1013.93
2018-10-16T03:26:52.686Z,1013.94
2018-10-16T03:27:52.657Z,1013.92
2018-10-16T03:28:52.631Z,1013.91
2018-10-16T03:29:52.606Z,1013.94
2018-10-16T03:30:52.584Z,1013.91
2018-10-16T03:31:52.752Z,1013.92
2018-10-16T03:32:52.531Z,1013.93
2018-10-16T03:33:52.497Z,1013.88
2018-10-16T03:34:52.471Z,1013.88
2018-10-16T03:35:52.448Z,1013.87
2018-10-16T03:36:52.419Z,1013.91
2018-10-16T03:37:52.391Z,1013.89
2018-10-16T03:38:52.385Z,1013.91
2018-10-16T03:39:52.336Z,1013.84
2018-10-16T03:40:52.310Z,1013.88
2018-10-16T03:41:52.282Z,1013.93
2018-10-16T03:42:52.258Z,1013.91
2018-10-16T03:43:52.231Z,1013.96
2018-10-16T03:44:52.204Z,1013.90
2018-10-16T03:45:52.179Z,1013.94
2018-10-16T03:46:52.150Z,1013.90
2018-10-16T03:47:52.124Z,1013.93
2018-10-16T03:48:52.099Z,1013.92
2018-10-16T03:49:52.074Z,1013.88
2018-10-16T03:50:52.043Z,1013.87
2018-10-16T03:51:52.018Z,1013.87
2018-10-16T03:52:51.996Z,1013.87
2018-10-16T03:53:51.960Z,1013.85
2018-10-16T03:54:51.934Z,1013.86
2018-10-16T03:55:51.913Z,1013.88
2018-10-16T03:56:51.888Z,1013.89
2018-10-16T03:57:51.903Z,1013.91
2018-10-16T03:58:51.841Z,1013.92
2018-10-16T03:59:51.801Z,1013.95
2018-10-16T04:00:51.775Z,1013.95
2018-10-16T04:01:51.751Z,1013.96
2018-10-16T04:02:51.723Z,1013.98
2018-10-16T04:03:51.692Z,1013.98
2018-10-16T04:04:51.665Z,1013.97
2018-10-16T04:05:51.639Z,1013.96
2018-10-16T04:06:51.714Z,1013.95
2018-10-16T04:07:51.587Z,1014.00
2018-10-16T04:08:51.561Z,1013.98
2018-10-16T04:09:51.538Z,1014.00
2018-10-16T04:10:51.508Z,1014.04
2018-10-16T04:11:51.480Z,1014.03
2018-10-16T04:12:51.461Z,1014.04
2018-10-16T04:13:51.653Z,1014.01
2018-10-16T04:14:51.400Z,1014.02
2018-10-16T04:15:51.366Z,1014.06
2018-10-16T04:16:51.352Z,1014.08
2018-10-16T04:17:51.313Z,1014.08
2018-10-16T04:18:51.283Z,1014.10
2018-10-16T04:19:51.257Z,1014.07
2018-10-16T04:20:51.228Z,1014.07
2018-10-16T04:21:51.200Z,1014.06
2018-10-16T04:22:51.261Z,1014.09
2018-10-16T04:23:51.149Z,1014.06
2018-10-16T04:24:51.127Z,1014.08
2018-10-16T04:25:51.098Z,1014.09
2018-10-16T04:26:51.067Z,1014.08
2018-10-16T04:27:51.039Z,1014.08
2018-10-16T04:28:51.013Z,1014.09
2018-10-16T04:29:50.984Z,1014.09
2018-10-16T04:30:50.958Z,1014.09
2018-10-16T04:31:51.141Z,1014.08
2018-10-16T04:32:50.906Z,1014.08
2018-10-16T04:33:50.879Z,1014.07
2018-10-16T04:34:50.852Z,1014.05
2018-10-16T04:35:50.825Z,1014.11
2018-10-16T04:36:50.800Z,1014.10
2018-10-16T04:37:50.771Z,1014.13
2018-10-16T04:38:50.745Z,1014.12
2018-10-16T04:39:50.723Z,1014.16
2018-10-16T04:40:50.690Z,1014.16
2018-10-16T04:41:50.661Z,1014.17
2018-10-16T04:42:50.634Z,1014.11
2018-10-16T04:43:50.621Z,1014.16
2018-10-16T04:44:50.602Z,1014.17
2018-10-16T04:45:50.556Z,1014.15
2018-10-16T04:46:50.529Z,1014.13
2018-10-16T04:47:50.499Z,1014.12
2018-10-16T04:48:50.476Z,1014.13
2018-10-16T04:49:50.445Z,1014.15
2018-10-16T04:50:50.417Z,1014.13
2018-10-16T04:51:50.393Z,1014.18
2018-10-16T04:52:50.369Z,1014.17
2018-10-16T04:53:50.340Z,1014.20
2018-10-16T04:54:50.311Z,1014.20
2018-10-16T04:55:50.287Z,1014.18
2018-10-16T04:56:50.263Z,1014.19
2018-10-16T04:57:50.235Z,1014.18
2018-10-16T04:58:50.206Z,1014.22
2018-10-16T04:59:50.180Z,1014.18
2018-10-16T05:00:50.196Z,1014.21
2018-10-16T05:01:50.123Z,1014.24
2018-10-16T05:02:50.099Z,1014.21
2018-10-16T05:03:50.072Z,1014.21
2018-10-16T05:04:50.047Z,1014.20
2018-10-16T05:05:50.020Z,1014.19
2018-10-16T05:06:49.990Z,1014.19
2018-10-16T05:07:49.964Z,1014.23
2018-10-16T05:08:49.937Z,1014.21
2018-10-16T05:09:49.910Z,1014.25
2018-10-16T05:10:49.887Z,1014.22
2018-10-16T05:11:49.854Z,1014.24
2018-10-16T05:12:49.880Z,1014.23
2018-10-16T05:13:49.800Z,1014.22
2018-10-16T05:14:49.776Z,1014.24
2018-10-16T05:15:49.748Z,1014.25
2018-10-16T05:16:49.816Z,1014.28
2018-10-16T05:17:49.693Z,1014.27
2018-10-16T05:18:49.676Z,1014.28
2018-10-16T05:19:49.640Z,1014.28
2018-10-16T05:20:49.612Z,1014.28
2018-10-16T05:21:49.585Z,1014.30
2018-10-16T05:22:49.561Z,1014.31
2018-10-16T05:23:49.535Z,1014.34
2018-10-16T05:24:49.507Z,1014.33
2018-10-16T05:25:49.477Z,1014.39
2018-10-16T05:26:49.450Z,1014.41
2018-10-16T05:27:49.424Z,1014.41
2018-10-16T05:28:49.399Z,1014.44
2018-10-16T05:29:49.371Z,1014.42
2018-10-16T05:30:49.404Z,1014.44
2018-10-16T05:31:49.323Z,1014.44
2018-10-16T05:32:49.295Z,1014.44
2018-10-16T05:33:49.260Z,1014.48
2018-10-16T05:34:49.235Z,1014.47
2018-10-16T05:35:49.212Z,1014.52
2018-10-16T05:36:49.184Z,1014.50
2018-10-16T05:37:49.157Z,1014.51
2018-10-16T05:38:49.130Z,1014.57
2018-10-16T05:39:49.104Z,1014.56
2018-10-16T05:40:49.075Z,1014.57
2018-10-16T05:41:49.052Z,1014.60
2018-10-16T05:42:49.031Z,1014.59
2018-10-16T05:43:48.993Z,1014.64
2018-10-16T05:44:48.967Z,1014.60
2018-10-16T05:45:48.940Z,1014.61
2018-10-16T05:46:48.913Z,1014.56
2018-10-16T05:47:48.889Z,1014.60
2018-10-16T05:48:48.861Z,1014.61
2018-10-16T05:49:48.838Z,1014.58
2018-10-16T05:50:48.808Z,1014.59
2018-10-16T05:51:48.779Z,1014.60
2018-10-16T05:52:48.756Z,1014.56
2018-10-16T05:53:48.725Z,1014.58
2018-10-16T05:54:49.605Z,1014.61
2018-10-16T05:55:48.673Z,1014.62
2018-10-16T05:56:48.645Z,1014.63
2018-10-16T05:57:48.618Z,1014.67
2018-10-16T05:58:48.592Z,1014.66
2018-10-16T05:59:48.568Z,1014.76
2018-10-16T06:00:48.579Z,1014.76
2018-10-16T06:02:30.868Z,1014.77
2018-10-16T06:03:30.634Z,1014.79
2018-10-16T06:04:30.608Z,1014.76
2018-10-16T06:05:30.648Z,1014.81
2018-10-16T06:06:30.561Z,1014.85
2018-10-16T06:07:30.533Z,1014.89
2018-10-16T06:08:30.510Z,1014.89
2018-10-16T06:09:30.475Z,1014.89
2018-10-16T06:10:30.450Z,1014.88
2018-10-16T06:11:30.423Z,1014.96
2018-10-16T06:12:30.397Z,1014.97
2018-10-16T06:13:30.375Z,1015.04
2018-10-16T06:14:30.352Z,1015.01
2018-10-16T06:15:30.521Z,1015.01
2018-10-16T06:16:30.295Z,1015.04
2018-10-16T06:17:30.268Z,1015.06
2018-10-16T06:19:12.592Z,1015.05
2018-10-16T06:20:12.367Z,1015.06
2018-10-16T06:21:12.338Z,1015.11
2018-10-16T06:22:12.315Z,1015.14
2018-10-16T06:23:12.290Z,1015.17
2018-10-16T06:24:12.316Z,1015.17
2018-10-16T06:25:12.239Z,1015.22
2018-10-16T06:26:12.209Z,1015.24
2018-10-16T06:27:12.183Z,1015.24
2018-10-16T06:28:12.158Z,1015.20
2018-10-16T06:29:12.132Z,1015.26
2018-10-16T06:30:12.125Z,1015.28
2018-10-16T06:31:12.088Z,1015.27
2018-10-16T06:32:12.059Z,1015.31
2018-10-16T06:33:12.047Z,1015.32
2018-10-16T06:34:12.008Z,1015.30
2018-10-16T06:35:11.982Z,1015.31
2018-10-16T06:36:11.962Z,1015.35
2018-10-16T06:37:11.931Z,1015.36
2018-10-16T06:38:11.906Z,1015.38
2018-10-16T06:39:11.879Z,1015.45
2018-10-16T06:40:12.057Z,1015.47
2018-10-16T06:41:11.951Z,1015.47
2018-10-16T06:42:11.804Z,1015.52
2018-10-16T06:43:11.780Z,1015.50
2018-10-16T06:44:11.754Z,1015.50
2018-10-16T06:45:11.729Z,1015.47
2018-10-16T06:46:11.702Z,1015.49
2018-10-16T06:47:11.733Z,1015.51
2018-10-16T06:48:11.966Z,1015.49
2018-10-16T06:49:11.628Z,1015.46
2018-10-16T06:50:11.603Z,1015.46
2018-10-16T06:51:11.580Z,1015.50
2018-10-16T06:52:11.551Z,1015.52
2018-10-16T06:53:11.602Z,1015.54
2018-10-16T06:54:11.504Z,1015.51
2018-10-16T06:55:11.566Z,1015.51
2018-10-16T06:56:11.459Z,1015.55
2018-10-16T06:57:11.429Z,1015.60
2018-10-16T06:58:11.409Z,1015.61
2018-10-16T06:59:11.390Z,1015.60
2018-10-16T07:00:11.369Z,1015.53
2018-10-16T07:01:11.326Z,1015.51
2018-10-16T07:02:11.304Z,1015.53
2018-10-16T07:03:11.278Z,1015.53
2018-10-16T07:04:11.254Z,1015.47
2018-10-16T07:05:11.228Z,1015.50
2018-10-16T07:06:11.204Z,1015.53
2018-10-16T07:07:11.255Z,1015.53
2018-10-16T07:08:11.154Z,1015.53
2018-10-16T07:09:11.129Z,1015.56
2018-10-16T07:10:11.101Z,1015.57
2018-10-16T07:11:11.077Z,1015.56
2018-10-16T07:12:11.054Z,1015.60
2018-10-16T07:13:11.026Z,1015.64
2018-10-16T07:14:11.002Z,1015.65
2018-10-16T07:15:10.984Z,1015.61
2018-10-16T07:16:10.953Z,1015.66
2018-10-16T07:17:10.930Z,1015.63
2018-10-16T07:18:10.901Z,1015.63
2018-10-16T07:19:10.876Z,1015.67
2018-10-16T07:20:10.853Z,1015.64
2018-10-16T07:21:10.856Z,1015.62
2018-10-16T07:22:10.808Z,1015.62
2018-10-16T07:23:10.786Z,1015.61
2018-10-16T07:24:10.751Z,1015.60
2018-10-16T07:25:10.733Z,1015.60
2018-10-16T07:26:10.700Z,1015.63
2018-10-16T07:27:10.677Z,1015.62
2018-10-16T07:28:10.651Z,1015.62
2018-10-16T07:29:10.627Z,1015.64
2018-10-16T07:30:10.743Z,1015.65
2018-10-16T07:31:10.577Z,1015.67
2018-10-16T07:32:10.551Z,1015.71
2018-10-16T07:33:10.528Z,1015.68
2018-10-16T07:34:10.501Z,1015.70
2018-10-16T07:35:10.476Z,1015.67
2018-10-16T07:36:10.454Z,1015.72
2018-10-16T07:37:10.424Z,1015.68
2018-10-16T07:38:10.501Z,1015.73
2018-10-16T07:39:10.406Z,1015.71
2018-10-16T07:40:10.349Z,1015.71
2018-10-16T07:41:10.327Z,1015.72
2018-10-16T07:42:10.301Z,1015.76
2018-10-16T07:43:10.280Z,1015.79
2018-10-16T07:44:10.251Z,1015.77
2018-10-16T07:45:10.233Z,1015.79
2018-10-16T07:46:10.200Z,1015.84
2018-10-16T07:47:10.220Z,1015.87
2018-10-16T07:48:10.149Z,1015.85
2018-10-16T07:49:10.128Z,1015.83
2018-10-16T07:50:10.102Z,1015.87
2018-10-16T07:51:10.088Z,1015.81
2018-10-16T07:52:10.052Z,1015.80
2018-10-16T07:53:10.047Z,1015.84
2018-10-16T07:54:10.002Z,1015.84
2018-10-16T07:55:09.981Z,1015.88
2018-10-16T07:56:09.952Z,1015.87
2018-10-16T07:57:10.008Z,1015.90
2018-10-16T07:58:09.906Z,1015.94
2018-10-16T07:59:09.880Z,1015.93
2018-10-16T08:00:09.856Z,1015.95
2018-10-16T08:01:09.840Z,1015.94
2018-10-16T08:02:09.805Z,1015.96
2018-10-16T08:03:09.780Z,1015.98
2018-10-16T08:04:09.780Z,1015.99
2018-10-16T08:05:09.730Z,1015.98
2018-10-16T08:06:09.716Z,1016.00
2018-10-16T08:07:09.682Z,1015.95
2018-10-16T08:08:09.654Z,1015.98
2018-10-16T08:09:09.629Z,1015.98
2018-10-16T08:10:09.607Z,1015.98
2018-10-16T08:11:09.635Z,1015.94
2018-10-16T08:12:09.556Z,1015.97
2018-10-16T08:13:09.533Z,1015.98
2018-10-16T08:14:09.519Z,1015.97
2018-10-16T08:15:09.484Z,1016.00
2018-10-16T08:16:09.460Z,1015.96
2018-10-16T08:17:09.463Z,1016.01
2018-10-16T08:18:09.409Z,1016.01
2018-10-16T08:19:09.391Z,1015.99
2018-10-16T08:20:09.360Z,1016.01
2018-10-16T08:21:09.333Z,1016.00
2018-10-16T08:22:09.311Z,1016.04
2018-10-16T08:23:09.286Z,1016.01
2018-10-16T08:24:09.263Z,1016.06
2018-10-16T08:25:09.237Z,1016.06
2018-10-16T08:26:09.211Z,1016.10
2018-10-16T08:27:09.187Z,1016.08
2018-10-16T08:28:09.163Z,1016.05
2018-10-16T08:29:09.136Z,1016.05
2018-10-16T08:30:09.234Z,1016.07
2018-10-16T08:31:09.085Z,1016.07
2018-10-16T08:32:09.063Z,1016.07
2018-10-16T08:33:09.036Z,1016.10
2018-10-16T08:34:09.074Z,1016.12
2018-10-16T08:35:09.003Z,1016.16
2018-10-16T08:36:09.114Z,1016.12
2018-10-16T08:37:09.034Z,1016.15
2018-10-16T08:38:08.915Z,1016.18
2018-10-16T08:39:08.894Z,1016.21
2018-10-16T08:40:08.860Z,1016.23
2018-10-16T08:41:08.835Z,1016.21
2018-10-16T08:42:08.819Z,1016.26
2018-10-16T08:43:08.786Z,1016.31
2018-10-16T08:44:08.761Z,1016.36
2018-10-16T08:45:08.819Z,1016.52
2018-10-16T08:46:08.716Z,1016.66
2018-10-16T08:47:08.899Z,1016.50
2018-10-16T08:48:08.664Z,1016.32
2018-10-16T08:49:08.640Z,1016.36
2018-10-16T08:50:12.452Z,1016.35
2018-10-16T08:51:08.791Z,1016.32
2018-10-16T08:52:08.567Z,1016.31
2018-10-16T08:53:08.742Z,1016.36
2018-10-16T08:54:08.521Z,1016.37
2018-10-16T08:55:08.594Z,1016.36
2018-10-16T08:56:08.470Z,1016.37
2018-10-16T08:57:08.447Z,1016.40
2018-10-16T08:58:50.774Z,1016.39
2018-10-16T08:59:50.548Z,1016.44
2018-10-16T09:00:50.733Z,1016.42
2018-10-16T09:01:50.505Z,1016.42
2018-10-16T09:02:50.480Z,1016.43
2018-10-16T09:03:51.264Z,1016.44
2018-10-16T09:04:51.645Z,1016.39
2018-10-16T09:05:51.013Z,1016.43
2018-10-16T09:06:50.702Z,1016.43
2018-10-16T09:07:50.561Z,1016.43
2018-10-16T13:04:53.676Z,1016.35
2018-10-16T13:12:58.488Z,1016.35
2018-10-16T13:13:54.848Z,1016.32
2018-10-16T13:17:43.608Z,1016.36
2018-10-16T13:28:51.535Z,1016.32
2018-10-16T13:37:04.349Z,1016.38
2018-10-16T13:38:04.154Z,1016.39
2018-10-16T13:39:04.098Z,1016.41
2018-10-16T13:40:04.367Z,1016.35
2018-10-16T13:41:04.053Z,1016.37
2018-10-16T13:42:04.032Z,1016.42
2018-10-16T13:43:04.014Z,1016.45
2018-10-16T13:44:04.021Z,1016.42
2018-10-16T15:19:12.477Z,1016.39
2018-10-16T15:20:12.307Z,1016.45
2018-10-16T15:21:12.226Z,1016.48
2018-10-16T15:53:10.685Z,1016.42
2018-10-16T15:54:07.027Z,1016.42
2018-10-16T15:55:06.995Z,1016.45
2018-10-16T15:56:06.808Z,1016.42
2018-10-16T15:57:06.744Z,1016.42
2018-10-16T15:58:06.768Z,1016.47
2018-10-16T15:59:06.744Z,1016.45
2018-10-16T16:00:06.737Z,1016.48
2018-10-16T16:01:06.644Z,1016.46
2018-10-16T16:02:06.681Z,1016.50
2018-10-16T16:03:06.598Z,1016.54
2018-10-16T16:04:06.664Z,1016.50
2018-10-16T16:05:06.549Z,1016.51
2018-10-16T16:06:06.564Z,1016.52
2018-10-16T16:07:06.500Z,1016.51
2018-10-16T16:08:06.559Z,1016.51
2018-10-16T16:09:06.453Z,1016.53
2018-10-16T16:10:06.446Z,1016.57
2018-10-16T16:11:06.407Z,1016.56
2018-10-16T16:12:06.409Z,1016.56
2018-10-16T16:13:06.354Z,1016.59
2018-10-16T16:14:06.423Z,1016.60
2018-10-16T16:15:06.310Z,1016.57
2018-10-16T16:16:06.342Z,1016.58
2018-10-16T16:17:06.262Z,1016.62
2018-10-16T16:18:06.371Z,1016.63
2018-10-16T16:19:06.215Z,1016.62
2018-10-16T16:20:06.202Z,1016.60
2018-10-16T16:21:06.165Z,1016.59
2018-10-16T16:22:06.171Z,1016.58
2018-10-16T16:23:06.117Z,1016.61
2018-10-16T16:24:06.153Z,1016.62
2018-10-16T16:25:06.075Z,1016.62
2018-10-16T16:26:06.057Z,1016.63
2018-10-16T16:27:06.023Z,1016.63
2018-10-16T16:28:06.085Z,1016.64
2018-10-16T16:29:05.977Z,1016.62
2018-10-16T16:30:05.962Z,1016.62
2018-10-16T16:31:05.929Z,1016.63
2018-10-16T16:32:05.916Z,1016.62
2018-10-16T16:33:05.881Z,1016.64
2018-10-16T16:34:06.110Z,1016.60
2018-10-16T16:35:05.868Z,1016.63
2018-10-16T16:36:05.890Z,1016.59
2018-10-16T16:37:05.788Z,1016.64
2018-10-16T16:38:05.811Z,1016.63
2018-10-16T16:39:05.776Z,1016.66
2018-10-16T16:40:05.758Z,1016.66
2018-10-16T16:41:05.728Z,1016.67
2018-10-16T16:42:05.695Z,1016.67
2018-10-16T16:43:05.646Z,1016.70
2018-10-16T16:44:05.711Z,1016.73
2018-10-16T16:45:05.596Z,1016.67
2018-10-16T16:46:05.591Z,1016.73
2018-10-16T16:47:05.574Z,1016.73
2018-10-16T16:48:05.526Z,1016.74
2018-10-16T16:49:05.508Z,1016.75
2018-10-16T16:50:05.489Z,1016.73
2018-10-16T16:51:05.459Z,1016.74
2018-10-16T16:52:05.491Z,1016.75
2018-10-16T16:53:05.422Z,1016.78
2018-10-16T16:54:05.386Z,1016.79
2018-10-16T16:55:05.358Z,1016.79
2018-10-16T16:56:05.444Z,1016.81
2018-10-16T16:57:05.312Z,1016.79
2018-10-16T16:58:05.315Z,1016.80
2018-10-16T16:59:05.325Z,1016.78
2018-10-16T17:00:05.240Z,1016.79
2018-10-16T17:01:05.215Z,1016.77
2018-10-16T17:02:05.260Z,1016.80
2018-10-16T17:03:05.169Z,1016.81
2018-10-16T17:04:05.186Z,1016.76
2018-10-16T17:05:05.128Z,1016.81
2018-10-16T17:06:05.299Z,1016.80
2018-10-16T17:07:05.074Z,1016.83
2018-10-16T17:08:05.122Z,1016.80
2018-10-16T17:09:05.026Z,1016.81
2018-10-16T17:10:05.107Z,1016.78
2018-10-16T17:11:04.982Z,1016.83
2018-10-16T17:12:05.160Z,1016.83
2018-10-16T17:13:04.929Z,1016.82
2018-10-16T17:14:04.949Z,1016.81
2018-10-16T17:15:04.888Z,1016.85
2018-10-16T17:16:04.910Z,1016.81
2018-10-16T17:17:04.836Z,1016.86
2018-10-16T17:18:04.811Z,1016.82
2018-10-16T17:19:04.787Z,1016.81
2018-10-16T17:20:04.829Z,1016.83
2018-10-16T17:21:04.739Z,1016.84
2018-10-16T17:22:04.731Z,1016.86
2018-10-16T17:23:04.697Z,1016.87
2018-10-16T17:24:04.670Z,1016.90
2018-10-16T17:25:04.851Z,1016.87
2018-10-16T17:26:04.818Z,1016.94
2018-10-16T17:27:04.600Z,1016.90
2018-10-16T17:28:04.598Z,1016.95
2018-10-16T17:29:04.554Z,1016.99
2018-10-16T17:30:04.525Z,1016.94
2018-10-16T17:31:04.502Z,1016.98
2018-10-16T17:32:04.477Z,1016.97
2018-10-16T17:33:04.506Z,1017.02
2018-10-16T17:34:04.474Z,1017.03
2018-10-16T17:35:04.404Z,1017.03
2018-10-16T17:36:04.383Z,1017.03
2018-10-16T17:37:04.368Z,1017.04
2018-10-16T17:38:04.335Z,1017.04
2018-10-16T17:39:04.325Z,1017.00
2018-10-16T17:40:04.286Z,1017.02
2018-10-16T17:41:04.262Z,1017.04
2018-10-16T17:42:04.239Z,1017.07
2018-10-16T17:43:04.214Z,1017.04
2018-10-16T17:44:04.191Z,1017.03
2018-10-16T17:45:04.212Z,1017.02
2018-10-16T17:46:04.142Z,1016.99
2018-10-16T17:47:04.119Z,1017.06
2018-10-16T17:48:04.120Z,1017.05
2018-10-16T17:49:04.083Z,1017.07
2018-10-16T17:50:04.048Z,1017.10
2018-10-16T17:51:04.072Z,1017.11
2018-10-16T17:52:04.000Z,1017.11
2018-10-16T17:53:03.978Z,1017.13
2018-10-16T17:54:03.951Z,1017.13
2018-10-16T17:55:03.927Z,1017.11
2018-10-16T17:56:03.905Z,1017.12
2018-10-16T17:57:03.893Z,1017.14
2018-10-16T17:58:03.909Z,1017.12
2018-10-16T17:59:03.849Z,1017.14
2018-10-16T18:00:03.808Z,1017.21
2018-10-16T18:01:03.786Z,1017.21
2018-10-16T18:02:03.765Z,1017.22
2018-10-16T18:03:03.762Z,1017.19
2018-10-16T18:04:03.720Z,1017.17
2018-10-16T18:05:03.689Z,1017.17
2018-10-16T18:06:03.663Z,1017.16
2018-10-16T18:07:03.640Z,1017.16
2018-10-16T18:08:03.619Z,1017.16
2018-10-16T18:09:03.629Z,1017.13
2018-10-16T18:10:03.570Z,1017.14
2018-10-16T18:11:03.545Z,1017.16
2018-10-16T18:12:03.520Z,1017.16
2018-10-16T18:13:03.508Z,1017.20
2018-10-16T18:14:03.471Z,1017.16
2018-10-16T18:15:03.518Z,1017.16
2018-10-16T18:16:03.424Z,1017.17
2018-10-16T18:17:03.401Z,1017.21
2018-10-16T18:18:03.422Z,1017.18
2018-10-16T18:19:03.358Z,1017.19
2018-10-16T18:20:03.330Z,1017.21
2018-10-16T18:21:03.413Z,1017.21
2018-10-16T18:22:03.282Z,1017.22
2018-10-16T18:23:03.259Z,1017.22
2018-10-16T18:24:03.236Z,1017.22
2018-10-16T18:25:03.210Z,1017.23
2018-10-16T18:26:04.037Z,1017.24
2018-10-16T18:27:03.224Z,1017.29
2018-10-16T18:28:03.139Z,1017.29
2018-10-16T18:29:03.117Z,1017.32
2018-10-16T18:30:03.091Z,1017.31
2018-10-16T18:31:03.073Z,1017.29
2018-10-16T18:32:03.047Z,1017.29
2018-10-16T18:33:03.087Z,1017.30
2018-10-16T18:34:02.999Z,1017.31
2018-10-16T18:35:02.971Z,1017.31
2018-10-16T18:36:02.946Z,1017.33
2018-10-16T18:37:02.923Z,1017.31
2018-10-16T18:38:02.898Z,1017.35